createdAt,value
2019-05-03T00:02:26.114Z,15.30
2019-05-03T00:05:03.074Z,14.75
2019-05-03T00:07:34.888Z,14.42
2019-05-03T00:10:08.753Z,14.10
2019-05-03T00:12:42.174Z,13.80
2019-05-03T00:15:26.570Z,13.52
2019-05-03T00:17:59.361Z,13.25
2019-05-03T00:20:32.670Z,13.02
2019-05-03T00:23:05.024Z,12.79
2019-05-03T00:25:36.865Z,13.83
2019-05-03T00:28:08.600Z,15.34
2019-05-03T00:30:42.269Z,14.93
2019-05-03T00:33:13.850Z,14.31
2019-05-03T00:35:47.319Z,13.85
2019-05-03T00:38:18.965Z,13.45
2019-05-03T00:40:52.378Z,13.11
2019-05-03T00:43:24.101Z,12.79
2019-05-03T00:45:55.823Z,13.02
2019-05-03T00:48:27.552Z,14.86
2019-05-03T00:50:59.278Z,15.39
2019-05-03T00:53:31.748Z,14.79
2019-05-03T00:56:03.692Z,14.17
2019-05-03T00:58:37.170Z,13.70
2019-05-03T01:01:08.953Z,13.31
2019-05-03T01:03:41.849Z,12.95
2019-05-03T01:06:13.601Z,12.63
2019-05-03T01:08:45.305Z,12.28
2019-05-03T01:11:17.032Z,12.00
2019-05-03T01:13:51.993Z,12.63
2019-05-03T01:16:24.960Z,14.49
2019-05-03T01:18:56.672Z,14.88
2019-05-03T01:21:28.394Z,14.25
2019-05-03T01:24:01.672Z,13.73
2019-05-03T01:26:33.423Z,13.30
2019-05-03T01:29:05.523Z,12.92
2019-05-03T01:31:37.240Z,12.56
2019-05-03T01:34:12.523Z,12.27
2019-05-03T01:36:44.143Z,11.96
2019-05-03T01:39:15.944Z,11.72
2019-05-03T01:41:47.663Z,11.48
2019-05-03T01:44:19.509Z,12.58
2019-05-03T01:46:52.855Z,14.55
2019-05-03T01:49:29.037Z,14.98
2019-05-03T01:52:06.144Z,14.38
2019-05-03T01:54:39.029Z,13.80
2019-05-03T01:57:11.604Z,13.38
2019-05-03T01:59:43.540Z,12.99
2019-05-03T02:02:34.166Z,12.65
2019-05-03T02:05:19.755Z,12.35
2019-05-03T02:07:51.989Z,12.04
2019-05-03T02:10:23.762Z,11.79
2019-05-03T02:12:55.778Z,12.95
2019-05-03T02:15:27.599Z,15.00
2019-05-03T02:17:59.316Z,15.11
2019-05-03T02:20:32.406Z,14.41
2019-05-03T02:23:04.898Z,13.83
2019-05-03T02:25:36.779Z,13.39
2019-05-03T02:28:08.489Z,13.02
2019-05-03T02:30:43.672Z,12.66
2019-05-03T02:33:13.898Z,12.41
2019-05-03T02:35:45.618Z,13.90
2019-05-03T02:38:17.337Z,15.66
2019-05-03T02:40:49.155Z,15.65
2019-05-03T02:43:26.002Z,14.94
2019-05-03T02:46:02.300Z,14.31
2019-05-03T02:48:36.237Z,13.80
2019-05-03T02:51:07.210Z,13.34
2019-05-03T02:53:39.023Z,12.97
2019-05-03T02:56:18.287Z,12.61
2019-05-03T02:58:46.076Z,12.24
2019-05-03T03:01:18.539Z,11.90
2019-05-03T03:03:51.494Z,11.62
2019-05-03T03:06:26.825Z,11.97
2019-05-03T03:09:00.282Z,13.89
2019-05-03T03:11:37.481Z,13.55
2019-05-03T03:14:16.461Z,12.96
2019-05-03T03:16:50.892Z,12.48
2019-05-03T03:19:26.160Z,12.09
2019-05-03T03:22:01.268Z,11.75
2019-05-03T03:24:36.131Z,11.45
2019-05-03T03:27:12.228Z,11.20
2019-05-03T03:29:49.226Z,10.93
2019-05-03T03:32:29.779Z,10.72
2019-05-03T03:35:20.627Z,10.51
2019-05-03T03:37:51.421Z,11.03
2019-05-03T03:40:25.398Z,13.06
2019-05-03T03:43:00.590Z,13.65
2019-05-03T03:45:36.205Z,13.03
2019-05-03T03:48:11.036Z,12.54
2019-05-03T03:50:49.088Z,12.12
2019-05-03T03:53:26.163Z,11.83
2019-05-03T03:55:57.902Z,11.54
2019-05-03T03:58:30.494Z,11.26
2019-05-03T04:01:02.679Z,10.99
2019-05-03T04:03:36.234Z,10.75
2019-05-03T04:06:08.331Z,10.57
2019-05-03T04:08:45.130Z,10.37
2019-05-03T04:11:16.581Z,11.43
2019-05-03T04:13:48.809Z,13.48
2019-05-03T04:16:21.966Z,13.75
2019-05-03T04:18:58.408Z,13.14
2019-05-03T04:21:30.113Z,12.63
2019-05-03T04:24:02.204Z,12.27
2019-05-03T04:26:35.782Z,11.94
2019-05-03T04:29:07.693Z,11.61
2019-05-03T04:31:42.282Z,11.31
2019-05-03T04:34:16.215Z,11.06
2019-05-03T04:36:47.302Z,10.81
2019-05-03T04:39:20.242Z,10.60
2019-05-03T04:41:52.305Z,11.66
2019-05-03T04:44:26.054Z,13.66
2019-05-03T04:46:58.409Z,13.94
2019-05-03T04:49:30.427Z,13.34
2019-05-03T04:52:02.146Z,12.84
2019-05-03T04:54:41.293Z,12.51
2019-05-03T04:57:15.817Z,12.17
2019-05-03T04:59:46.356Z,11.94
2019-05-03T05:02:18.056Z,11.78
2019-05-03T05:04:49.898Z,11.66
2019-05-03T05:07:21.615Z,11.59
2019-05-03T05:09:56.244Z,11.48
2019-05-03T05:12:27.577Z,11.57
2019-05-03T05:14:59.305Z,11.55
2019-05-03T05:17:35.348Z,11.40
2019-05-03T05:20:09.350Z,11.28
2019-05-03T05:22:41.061Z,11.13
2019-05-03T05:25:14.887Z,11.00
2019-05-03T05:28:00.451Z,10.95
2019-05-03T05:30:32.751Z,11.27
2019-05-03T05:33:05.436Z,11.50
2019-05-03T05:35:37.375Z,12.04
2019-05-03T05:38:09.107Z,12.92
2019-05-03T05:40:40.844Z,13.46
2019-05-03T05:43:12.664Z,13.96
2019-05-03T05:45:44.917Z,14.62
2019-05-03T05:48:18.449Z,15.13
2019-05-03T05:50:50.040Z,15.42
2019-05-03T05:53:21.856Z,16.24
2019-05-03T05:56:11.412Z,16.88
2019-05-03T05:58:55.363Z,17.25
2019-05-03T06:01:29.418Z,17.50
2019-05-03T06:04:01.152Z,17.67
2019-05-03T06:06:34.889Z,17.77
2019-05-03T06:09:15.338Z,17.73
2019-05-03T06:11:51.692Z,17.77
2019-05-03T08:37:18.615Z,19.56
2019-05-03T08:39:44.908Z,19.33
2019-05-03T08:42:28.549Z,18.97
2019-05-03T08:44:57.543Z,18.59
2019-05-03T08:47:34.396Z,18.30
2019-05-03T08:50:08.066Z,18.05
2019-05-03T08:52:39.714Z,17.84
2019-05-03T08:55:15.990Z,17.67
2019-05-03T08:57:50.191Z,17.54
2019-05-03T09:00:32.936Z,17.35
2019-05-03T09:03:05.920Z,17.25
2019-05-03T09:05:41.922Z,17.19
2019-05-03T09:08:26.247Z,17.12
2019-05-03T09:11:02.198Z,17.12
2019-05-03T09:13:52.696Z,17.02
2019-05-03T09:16:28.976Z,16.83
2019-05-03T09:19:00.843Z,16.64
2019-05-03T09:21:34.609Z,16.38
2019-05-03T09:24:07.700Z,16.07
2019-05-03T09:26:39.238Z,15.78
2019-05-03T09:29:10.969Z,15.63
2019-05-03T09:31:44.629Z,15.58
2019-05-03T09:34:16.340Z,15.53
2019-05-03T09:36:48.103Z,15.50
2019-05-03T09:39:19.868Z,15.56
2019-05-03T09:41:51.595Z,15.65
2019-05-03T09:44:31.159Z,15.74
2019-05-03T09:47:05.612Z,15.80
2019-05-03T09:49:42.477Z,15.90
2019-05-03T09:52:18.339Z,16.05
2019-05-03T09:54:57.352Z,16.10
2019-05-03T09:57:30.218Z,16.08
2019-05-03T10:00:07.790Z,16.07
2019-05-03T10:02:40.666Z,16.08
2019-05-03T10:05:15.452Z,16.15
2019-05-03T10:07:48.015Z,16.31
2019-05-03T10:10:19.719Z,16.45
2019-05-03T10:12:58.849Z,16.56
2019-05-03T10:15:44.990Z,16.73
2019-05-03T10:18:22.418Z,16.81
2019-05-03T10:20:56.157Z,16.80
2019-05-03T10:23:35.975Z,16.90
2019-05-03T10:26:08.671Z,17.05
2019-05-03T10:28:41.592Z,17.21
2019-05-03T10:31:14.651Z,17.30
2019-05-03T10:33:51.201Z,17.37
2019-05-03T10:36:26.809Z,17.40
2019-05-03T10:38:58.468Z,17.40
2019-05-03T10:41:30.206Z,17.50
2019-05-03T10:44:02.032Z,17.56
2019-05-03T10:46:35.708Z,17.53
2019-05-03T10:49:07.340Z,17.60
2019-05-03T10:51:41.324Z,17.62
2019-05-03T10:54:14.651Z,17.66
2019-05-03T10:56:56.694Z,17.69
2019-05-03T10:59:28.540Z,17.53
2019-05-03T11:02:07.815Z,17.33
2019-05-03T11:04:39.460Z,17.12
2019-05-03T11:07:11.230Z,16.95
2019-05-03T11:09:49.698Z,16.81
2019-05-03T11:12:17.826Z,16.67
2019-05-03T11:14:49.896Z,16.46
2019-05-03T11:17:21.733Z,16.29
2019-05-03T11:19:54.736Z,16.15
2019-05-03T11:22:26.943Z,16.04
2019-05-03T11:24:58.692Z,15.95
2019-05-03T11:27:41.211Z,15.84
2019-05-03T11:30:15.737Z,15.76
2019-05-03T11:32:51.978Z,15.69
2019-05-03T11:35:25.163Z,15.60
2019-05-03T11:37:58.454Z,15.56
2019-05-03T11:40:30.128Z,15.48
2019-05-03T11:43:04.659Z,15.42
2019-05-03T11:45:36.450Z,15.41
2019-05-03T11:48:08.198Z,15.48
2019-05-03T11:50:39.968Z,15.48
2019-05-03T11:53:11.728Z,15.53
2019-05-03T11:55:46.254Z,15.73
2019-05-03T11:58:25.790Z,15.80
2019-05-03T12:01:15.325Z,15.83
2019-05-03T12:03:45.625Z,15.74
2019-05-03T12:06:17.251Z,15.69
2019-05-03T12:08:48.992Z,15.60
2019-05-03T12:11:20.762Z,15.55
2019-05-03T12:14:02.417Z,15.49
2019-05-03T12:17:07.768Z,15.43
2019-05-03T12:19:15.692Z,15.43
2019-05-03T12:21:37.580Z,15.50
2019-05-03T12:24:15.216Z,15.67
2019-05-03T12:26:47.008Z,15.86
2019-05-03T12:29:18.844Z,15.93
2019-05-03T12:31:50.495Z,15.95
2019-05-03T12:34:22.222Z,16.00
2019-05-03T12:36:53.959Z,16.01
2019-05-03T12:39:30.127Z,16.01
2019-05-03T12:42:02.366Z,16.01
2019-05-03T12:44:35.452Z,16.07
2019-05-03T12:47:07.141Z,16.12
2019-05-03T12:49:38.980Z,16.14
2019-05-03T12:52:11.239Z,16.15
2019-05-03T12:54:44.641Z,16.10
2019-05-03T12:57:16.400Z,16.03
2019-05-03T12:59:52.706Z,15.94
2019-05-03T13:02:41.215Z,15.90
2019-05-03T13:05:12.999Z,15.90
2019-05-03T13:07:46.183Z,15.98
2019-05-03T13:10:22.339Z,16.04
2019-05-03T13:12:53.353Z,16.01
2019-05-03T13:15:24.576Z,15.98
2019-05-03T13:17:56.298Z,15.88
2019-05-03T13:20:28.721Z,15.86
2019-05-03T13:23:00.797Z,15.86
2019-05-03T13:25:32.427Z,15.86
2019-05-03T13:28:05.491Z,15.87
2019-05-03T13:30:37.499Z,15.93
2019-05-03T13:33:09.270Z,15.91
2019-05-03T13:35:41.043Z,15.94
2019-05-03T13:38:12.947Z,16.00
2019-05-03T13:40:45.756Z,16.05
2019-05-03T13:43:17.362Z,16.11
2019-05-03T13:45:52.127Z,16.15
2019-05-03T13:48:26.268Z,16.21
2019-05-03T13:50:57.652Z,16.18
2019-05-03T13:53:29.486Z,16.15
2019-05-03T13:56:01.223Z,16.14
2019-05-03T13:58:32.935Z,16.15
2019-05-03T14:01:05.694Z,16.14
2019-05-03T14:03:38.592Z,16.08
2019-05-03T14:06:12.352Z,16.04
2019-05-03T14:08:45.481Z,16.05
2019-05-03T14:11:21.097Z,16.04
2019-05-03T14:14:01.837Z,15.98
2019-05-03T14:16:33.456Z,15.90
2019-05-03T14:19:09.899Z,15.81
2019-05-03T14:21:47.597Z,15.78
2019-05-03T14:24:19.431Z,15.72
2019-05-03T14:26:51.173Z,15.63
2019-05-03T14:29:25.223Z,15.52
2019-05-03T14:31:56.543Z,15.42
2019-05-03T14:34:28.283Z,15.34
2019-05-03T14:37:00.023Z,15.24
2019-05-03T14:39:31.767Z,15.19
2019-05-03T14:42:04.857Z,15.17
2019-05-03T14:44:37.443Z,15.14
2019-05-03T14:47:11.364Z,15.08
2019-05-03T14:49:47.973Z,15.03
2019-05-03T14:52:25.134Z,15.04
2019-05-03T14:55:06.473Z,15.00
2019-05-03T14:57:42.081Z,15.03
2019-05-03T15:00:18.969Z,15.07
2019-05-03T15:02:55.395Z,15.11
2019-05-03T15:05:31.702Z,15.15
2019-05-03T15:08:15.011Z,15.13
2019-05-03T15:10:47.711Z,15.10
2019-05-03T15:13:19.429Z,15.05
2019-05-03T15:15:51.180Z,15.00
2019-05-03T15:18:22.924Z,14.88
2019-05-03T15:20:55.546Z,14.83
2019-05-03T15:23:28.313Z,14.79
2019-05-03T15:25:59.951Z,14.75
2019-05-03T15:28:31.955Z,14.68
2019-05-03T15:31:09.607Z,14.60
2019-05-03T15:33:41.281Z,14.56
2019-05-03T15:36:15.467Z,14.53
2019-05-03T15:38:48.844Z,14.48
2019-05-03T15:41:25.134Z,14.49
2019-05-03T15:43:59.141Z,14.52
2019-05-03T15:46:36.720Z,14.49
2019-05-03T15:49:08.570Z,14.47
2019-05-03T15:51:40.303Z,14.45
2019-05-03T15:54:15.755Z,14.42
2019-05-03T15:56:49.268Z,14.39
2019-05-03T15:59:21.162Z,14.29
2019-05-03T16:01:52.911Z,14.25
2019-05-03T16:04:25.131Z,14.21
2019-05-03T16:06:57.300Z,14.18
2019-05-03T16:09:29.223Z,14.10
2019-05-03T16:12:00.854Z,14.04
2019-05-03T16:14:32.621Z,13.97
2019-05-03T16:17:04.532Z,13.90
2019-05-03T16:19:36.426Z,13.83
2019-05-03T16:22:08.172Z,13.78
2019-05-03T16:24:39.907Z,13.73
2019-05-03T16:27:19.004Z,13.62
2019-05-03T16:29:50.844Z,13.53
2019-05-03T16:32:22.587Z,13.45
2019-05-03T16:34:54.989Z,13.35
2019-05-03T16:37:26.753Z,13.27
2019-05-03T16:39:58.670Z,13.16
2019-05-03T16:42:30.532Z,13.08
2019-05-03T16:45:02.266Z,12.99
2019-05-03T16:47:35.449Z,12.90
2019-05-03T16:50:08.242Z,12.86
2019-05-03T16:52:40.069Z,12.76
2019-05-03T16:55:12.101Z,12.69
2019-05-03T16:57:44.319Z,12.61
2019-05-03T17:00:18.082Z,12.54
2019-05-03T17:02:49.835Z,12.44
2019-05-03T17:05:39.488Z,12.40
2019-05-03T17:08:15.620Z,12.30
2019-05-03T17:10:51.757Z,12.23
2019-05-03T17:13:25.161Z,12.16
2019-05-03T17:15:56.847Z,12.09
2019-05-03T17:18:28.693Z,12.03
2019-05-03T17:21:00.441Z,11.97
2019-05-03T17:23:32.167Z,11.92
2019-05-03T17:26:03.919Z,11.86
2019-05-03T17:28:35.650Z,11.79
2019-05-03T17:31:07.490Z,11.73
2019-05-03T17:33:50.469Z,11.68
2019-05-03T17:36:12.789Z,11.59
2019-05-03T17:38:45.608Z,11.55
2019-05-03T17:41:34.718Z,11.48
2019-05-03T17:44:09.797Z,11.41
2019-05-03T17:46:41.647Z,11.34
2019-05-03T17:49:14.728Z,11.27
2019-05-03T17:51:49.404Z,11.19
2019-05-03T17:54:27.241Z,11.13
2019-05-03T17:57:04.559Z,11.07
2019-05-03T17:59:41.580Z,11.00
2019-05-03T18:02:15.420Z,10.93
2019-05-03T18:05:05.354Z,10.85
2019-05-03T18:07:54.924Z,10.81
2019-05-03T18:10:28.147Z,10.74
2019-05-03T18:12:59.804Z,10.68
2019-05-03T18:15:31.459Z,10.64
2019-05-03T18:18:05.135Z,10.57
2019-05-03T18:20:38.003Z,10.51
2019-05-03T18:23:09.899Z,10.47
2019-05-03T18:25:41.612Z,10.40
2019-05-03T18:28:14.981Z,10.37
2019-05-03T18:30:46.761Z,10.27
2019-05-03T18:33:18.670Z,10.21
2019-05-03T18:35:50.457Z,10.14
2019-05-03T18:38:25.210Z,10.06
2019-05-03T18:40:59.336Z,10.01
2019-05-03T18:43:37.585Z,9.92
2019-05-03T18:46:28.063Z,9.81
2019-05-03T18:49:04.482Z,9.77
2019-05-03T18:51:37.516Z,9.65
2019-05-03T18:54:15.625Z,9.58
2019-05-03T18:56:48.787Z,9.50
2019-05-03T18:59:22.186Z,9.41
2019-05-03T19:01:56.292Z,9.36
2019-05-03T19:04:37.337Z,9.26
2019-05-03T19:07:10.451Z,9.21
2019-05-03T19:09:51.188Z,9.15
2019-05-03T19:12:28.889Z,9.08
2019-05-03T19:15:05.182Z,9.04
2019-05-03T19:17:54.712Z,8.98
2019-05-03T19:20:30.211Z,8.92
2019-05-03T19:23:02.224Z,8.90
2019-05-03T19:25:45.818Z,8.84
2019-05-03T19:28:08.215Z,8.77
2019-05-03T19:30:44.417Z,8.72
2019-05-03T19:33:16.305Z,8.70
2019-05-03T19:35:48.217Z,8.65
2019-05-03T19:38:19.850Z,8.63
2019-05-03T19:40:54.714Z,8.59
2019-05-03T19:43:27.028Z,8.59
2019-05-03T19:46:00.670Z,8.54
2019-05-03T19:48:34.787Z,8.54
2019-05-03T19:51:09.356Z,8.51
2019-05-03T19:53:47.419Z,8.46
2019-05-03T19:56:19.915Z,8.46
2019-05-03T19:58:55.343Z,8.42
2019-05-03T20:01:51.292Z,8.37
2019-05-03T20:04:33.086Z,8.31
2019-05-03T20:07:21.683Z,8.26
2019-05-03T20:09:54.477Z,8.19
2019-05-03T20:12:28.052Z,8.15
2019-05-03T20:15:01.426Z,8.08
2019-05-03T20:17:54.010Z,8.04
2019-05-03T20:20:10.165Z,8.01
2019-05-03T20:22:45.097Z,7.98
2019-05-03T20:25:17.673Z,7.90
2019-05-03T20:27:49.366Z,7.87
2019-05-03T20:30:23.151Z,7.84
2019-05-03T20:33:03.872Z,7.80
2019-05-03T20:35:45.233Z,7.74
2019-05-03T20:38:17.354Z,7.69
2019-05-03T20:40:49.423Z,7.60
2019-05-03T20:43:39.183Z,7.54
2019-05-03T20:46:10.799Z,7.49
2019-05-03T20:48:44.825Z,7.42
2019-05-03T20:51:16.997Z,7.35
2019-05-03T20:53:48.781Z,7.25
2019-05-03T20:56:21.876Z,7.19
2019-05-03T20:58:54.993Z,7.11
2019-05-03T21:01:45.934Z,7.03
2019-05-03T21:04:21.085Z,6.97
2019-05-03T21:06:55.181Z,6.88
2019-05-03T21:09:29.077Z,6.82
2019-05-03T21:12:01.780Z,6.79
2019-05-03T21:14:35.026Z,6.75
2019-05-03T21:17:20.182Z,6.66
2019-05-03T21:19:55.215Z,6.60
2019-05-03T21:22:29.980Z,6.56
2019-05-03T21:25:10.310Z,6.48
2019-05-03T21:27:44.829Z,6.45
2019-05-03T21:30:17.856Z,6.41
2019-05-03T21:33:05.275Z,6.34
2019-05-03T21:35:41.563Z,6.28
2019-05-03T21:38:10.580Z,6.24
2019-05-03T21:40:42.342Z,6.20
2019-05-03T21:43:15.246Z,6.17
2019-05-03T21:45:51.862Z,6.11
2019-05-03T21:48:28.185Z,6.07
2019-05-03T21:50:59.837Z,6.01
2019-05-03T21:53:31.582Z,6.00
2019-05-03T21:56:04.082Z,5.98
2019-05-03T21:58:35.708Z,5.96
2019-05-03T22:01:15.664Z,5.94
2019-05-03T22:03:44.752Z,5.94
2019-05-03T22:06:17.191Z,5.94
2019-05-03T22:08:48.907Z,5.96
2019-05-03T22:11:20.641Z,5.98
2019-05-03T22:13:54.253Z,6.00
2019-05-03T22:16:29.201Z,6.00
2019-05-03T22:19:00.823Z,6.03
2019-05-03T22:21:36.867Z,6.07
2019-05-03T22:24:20.128Z,6.07
2019-05-03T22:26:53.583Z,6.10
2019-05-03T22:29:25.964Z,6.13
2019-05-03T22:31:57.784Z,6.15
2019-05-03T22:34:29.555Z,6.17
2019-05-03T22:37:01.287Z,6.20
2019-05-03T22:39:33.009Z,6.22
2019-05-03T22:42:05.115Z,6.25
2019-05-03T22:44:36.862Z,6.28
2019-05-03T22:47:09.835Z,6.25
2019-05-03T22:49:41.722Z,6.29
2019-05-03T22:52:15.275Z,6.29
2019-05-03T22:54:48.319Z,6.32
2019-05-03T22:57:19.956Z,6.28
2019-05-03T22:59:51.694Z,6.31
2019-05-03T23:02:24.852Z,6.31
2019-05-03T23:04:57.109Z,6.31
2019-05-03T23:07:28.847Z,6.32
2019-05-03T23:10:00.577Z,6.35
2019-05-03T23:12:34.695Z,6.35
2019-05-03T23:15:11.387Z,6.34
2019-05-03T23:17:45.020Z,6.36
2019-05-03T23:20:25.448Z,6.35
2019-05-03T23:22:57.288Z,6.38
2019-05-03T23:25:30.720Z,6.39
2019-05-03T23:28:02.687Z,6.41
2019-05-03T23:30:36.625Z,6.41
2019-05-03T23:33:08.553Z,6.41
2019-05-03T23:35:40.288Z,6.43
2019-05-03T23:38:12.026Z,6.46
2019-05-03T23:40:44.760Z,6.43
2019-05-03T23:43:16.474Z,6.42
2019-05-03T23:45:49.374Z,6.43
2019-05-03T23:48:20.921Z,6.45
2019-05-03T23:50:52.751Z,6.42
2019-05-03T23:53:24.476Z,6.42
2019-05-03T23:55:58.912Z,6.42
2019-05-03T23:58:30.759Z,6.42
